Flight Track Log - Related Links

Times and Time Zones

All times are in EDT time to prevent confusion due to time zone crossing. See the SWA2869 flight status page for this flight to view local times or setup timezone preferences in your user account.

Time Position Orientation Groundspeed Altitude Reporting Facility
EDT Latitude Longitude Course Direction KTS MPH feet Rate Location/Type
Fri 09:24:20 AM 33.9056 -118.4589 134° Southeast 208 239 3,100  Level Los Angeles Center
Fri 09:25:21 AM 33.8486 -118.5167 220° Southwest 268 308 6,000 3,148 Climbing Los Angeles Center
Fri 09:26:22 AM 33.7700 -118.5300 188° South 303 349 9,500 3,246 Climbing Los Angeles Center
Fri 09:27:23 AM 33.6903 -118.4906 158° South 337 388 12,600 3,246 Climbing Los Angeles Center
Fri 09:28:24 AM 33.6558 -118.3844 111° Southeast 348 400 16,100 2,951 Climbing Los Angeles Center
Fri 09:29:00 AM 33.7052 -118.5440 134° Southeast  Level FlightAware Approximate
Fri 09:29:25 AM 33.6439 -118.2647 97° East 375 432 18,600  Level Los Angeles Center
Fri 09:30:26 AM 33.6894 -118.1361 67° East 378 435 22,700 2,311 Climbing Los Angeles Center
Fri 09:31:27 AM 33.7731 -118.0636 36° Northeast 377 434 23,300 2,115 Climbing Los Angeles Center
Fri 09:32:28 AM 33.8561 -117.9883 37° Northeast 378 435 27,000 2,803 Climbing Los Angeles Center
Fri 09:33:29 AM 33.9372 -117.9136 37° Northeast 373 429 29,000 976 Climbing Los Angeles Center
Fri 09:34:31 AM 34.0083 -117.8217 47° Northeast 377 434 29,000  Level Los Angeles Center
Fri 09:35:32 AM 34.0789 -117.7303 47° Northeast 376 433 29,000 639 Level Los Angeles Center
Fri 09:36:33 AM 34.1497 -117.6406 46° Northeast 372 428 30,300 984 Climbing Los Angeles Center
Fri 09:37:34 AM 34.2194 -117.5492 47° Northeast 371 427 31,000 341 Climbing Los Angeles Center
Fri 09:38:36 AM 34.3119 -117.4303 47° Northeast 397 457 31,000  Level Los Angeles Center
Fri 09:39:37 AM 34.3883 -117.3319 47° Northeast 402 463 31,000  Level Los Angeles Center
Fri 09:40:38 AM 34.4628 -117.2331 48° Northeast 403 464 31,000  Level Los Angeles Center
Fri 09:41:40 AM 34.5383 -117.1344 47° Northeast 403 464 31,000  Level Los Angeles Center
Fri 09:42:41 AM 34.6136 -117.0364 47° Northeast 402 463 31,000  Level Los Angeles Center
Fri 09:43:43 AM 34.6881 -116.9381 47° Northeast 400 460 31,000  Level Los Angeles Center
Fri 09:44:44 AM 34.7636 -116.8389 47° Northeast 402 463 31,000  Level Los Angeles Center
Fri 09:45:45 AM 34.8525 -116.7194 48° Northeast 400 460 31,000 -634 Level Los Angeles Center
Fri 09:46:47 AM 34.9272 -116.6192 48° Northeast 402 463 29,700 -1,854 Descending Los Angeles Center
Fri 09:47:48 AM 35.0019 -116.5239 46° Northeast 395 455 27,200 -2,439 Descending Los Angeles Center
Fri 09:48:50 AM 35.0756 -116.4336 45° Northeast 383 441 24,700 -1,561 Descending Los Angeles Center
Fri 09:49:51 AM 35.1503 -116.3428 45° Northeast 381 438 24,000 -341 Descending Los Angeles Center
Fri 09:50:53 AM 35.2219 -116.2539 45° Northeast 374 430 24,000  Level Los Angeles Center
Fri 09:51:54 AM 35.2919 -116.1619 47° Northeast 370 426 24,000 -878 Level Los Angeles Center
Fri 09:52:56 AM 35.3781 -116.0542 46° Northeast 371 427 22,200 -1,984 Descending Los Angeles Center
Fri 09:53:58 AM 35.4453 -115.9669 47° Northeast 358 412 19,900 -2,308 Descending Los Angeles Center
Fri 09:54:27 AM 35.4811 -115.9244 44° Northeast 353 406 18,700 -2,164 Descending Los Angeles Center
Fri 09:54:59 AM 35.5172 -115.8811 44° Northeast 339 390 17,700 -2,043 Descending Los Angeles Center
Fri 09:56:01 AM 35.5792 -115.7997 47° Northeast 330 380 15,500 -2,098 Descending Los Angeles Center
Fri 09:57:02 AM 35.6408 -115.7228 45° Northeast 321 369 13,400 -1,220 Descending Los Angeles Center
Fri 09:58:04 AM 35.6956 -115.6525 46° Northeast 294 338 13,000 -178 Descending Los Angeles Center
Fri 09:59:17 AM 35.7522 -115.5814 46° Northeast 267 307 13,000  Level Los Angeles Center
Fri 10:00:19 AM 35.8461 -115.5689 North 280 322 13,000  Level Los Angeles Center
Fri 10:01:21 AM 35.9000 -115.5253 33° Northeast 274 315 13,000 -403 Level Los Angeles Center
Fri 10:02:33 AM 35.9731 -115.4411 43° Northeast 265 305 12,100 -950 Descending Los Angeles Center
Fri 10:03:21 AM 36.0131 -115.3961 42° Northeast 258 297 11,100 -804 Descending Los Angeles Center
Fri 10:04:25 AM 36.0261 -115.3100 79° East 262 302 10,600 -881 Descending Los Angeles Center
Fri 10:05:10 AM 36.0208 -115.2422 95° East 248 285 9,500 -1,355 Descending Los Angeles Center
Fri 10:05:27 AM 36.0206 -115.2247 91° East 253 291 9,200 -1,433 Descending Los Angeles Center
Fri 10:06:17 AM 36.0144 -115.1433 95° East 257 296 7,900 -1,179 Descending Los Angeles Center
Fri 10:07:24 AM 36.0083 -115.0656 96° East 195 224 6,900 -1,134 Descending Los Angeles Center
Fri 10:08:24 AM 36.0192 -115.0061 77° East 178 205 5,500 -1,541 Descending Los Angeles Center
Fri 10:09:13 AM 36.0514 -114.9956 15° North 149 171 4,100 -1,478 Descending Los Angeles Center
Fri 10:09:33 AM 36.0631 -115.0019 336° Northwest 165 190 3,800 -575 Descending Los Angeles Center
Fri 10:10:26 AM 36.0728 -115.0442 286° West 143 165 3,400 -629 Descending Los Angeles Center
Fri 10:11:37 AM 36.0750 -115.0964 273° West 142 163 2,500 -583 Descending Los Angeles Center
Fri 10:12:50 AM 36.0742 -115.1400 269° West 137 158 2,000 -411 Descending Los Angeles Center
Fri 10:14:00 AM 36.0667 -115.1500 270° West  Level FlightAware Approximate

Login

Don't have an account? Register now (free) for customized features, flight alerts, and more!